This is the latest recevied weather packets stored in our database for station/object OE6JVE-13. If no packets are shown the sender has not sent any weather packets the latest 10 day(s).
| Time | Temp. | Humidity | Pressure | Rain* | Wind** | Luminosity | Snow |
|---|---|---|---|---|---|---|---|
| 1788523272 | 31.67° C | 35% | 1008.7 hPa | 0 mm | - | - | - |
| 1788522680 | 31.67° C | 33% | 1008.9 hPa | 0 mm | - | - | - |
| 1788522023 | 31.67° C | 34% | 1009.2 hPa | 0 mm | - | - | - |
| 1788521431 | 31.11° C | 34% | 1009.4 hPa | 0 mm | - | - | - |
| 1788520838 | 31.11° C | 33% | 1009.6 hPa | 0 mm | - | - | - |
| 1788520246 | 31.11° C | 33% | 1009.8 hPa | 0 mm | - | - | - |
| 1788519654 | 31.11° C | 33% | 1009.9 hPa | 0 mm | - | - | - |
| 1788519061 | 31.11° C | 34% | 1010.2 hPa | 0 mm | - | - | - |
| 1788518470 | 31.11° C | 34% | 1010.3 hPa | 0 mm | - | - | - |
| 1788517877 | 30° C | 35% | 1010.6 hPa | 0 mm | - | - | - |
| 1788517425 | 30.56° C | 35% | 1010.7 hPa | 0 mm | - | - | - |
| 1788516627 | 30.56° C | 36% | 1010.9 hPa | 0 mm | - | - | - |
| 1788515449 | 29.44° C | 37% | 1011.3 hPa | 0 mm | - | - | - |
| 1788514852 | 29.44° C | 39% | 1011.4 hPa | 0 mm | - | - | - |
| 1788514264 | 28.89° C | 39% | 1011.5 hPa | 0 mm | - | - | - |
| 1788513666 | 28.33° C | 42% | 1011.7 hPa | 0 mm | - | - | - |
| 1788513073 | 27.22° C | 45% | 1012 hPa | 0 mm | - | - | - |
| 1788512442 | 26.11° C | 49% | 1012.1 hPa | 0 mm | - | - | - |
| 1788512044 | 25.56° C | 50% | 1012.3 hPa | 0 mm | - | - | - |
| 1788510639 | 24.44° C | 55% | 1012.4 hPa | 0 mm | - | - | - |
| 1788510074 | 23.33° C | 64% | 1012.5 hPa | 0 mm | - | - | - |
| 1788509455 | 22.22° C | 72% | 1012.6 hPa | 0 mm | - | - | - |
| 1788508865 | 21.67° C | 76% | 1012.6 hPa | 0 mm | - | - | - |
| 1788508270 | 21.11° C | 77% | 1012.6 hPa | 0 mm | - | - | - |
| 1788507679 | 21.11° C | 80% | 1012.6 hPa | 0 mm | - | - | - |
* Rain latest hour (hover to see other rain measurements)
** Current wind speed in m/s (hover to see current wind gust speed)